Ostaskov, Russia
Current Conditions -  °F | °C
As of 9:30 AM on Monday 26 Jan 2015 (Local Time) from UUBW Reporting Station
Light Snow Light Snow  
Wind Chill:   Ceiling: 2800
Heat Index: 12°   Visibility: 6mi
Dew Point:   Wind: 9mph
Humidity: 85%   Direction: 140°SE
Pressure: 30.3"   Gusts: NA
Location:  57.16°N, 33.11°E
Report Text: UUBW 260630Z 14004MPS 9999 -SN OVC028 M11/M13 Q1026 NOSIG RMKSC0.45
Loading
Personal Weather Stations






























Interactive Weather Map New forecast layout! Learn more

10-Day Weather Forecast

Advertisements
Track Severe Weather on mobile